sensor_id;sensor_type;location;lat;lon;timestamp;P1;durP1;ratioP1;P2;durP2;ratioP2
16173;SDS011;14031;50.158;8.626;2023-12-14T00:00:50;15.60;;;9.47;;
16173;SDS011;14031;50.158;8.626;2023-12-14T00:03:16;22.40;;;9.53;;
16173;SDS011;14031;50.158;8.626;2023-12-14T00:05:45;13.93;;;9.70;;
16173;SDS011;14031;50.158;8.626;2023-12-14T00:08:12;22.63;;;9.93;;
16173;SDS011;14031;50.158;8.626;2023-12-14T00:10:38;23.20;;;9.70;;
16173;SDS011;14031;50.158;8.626;2023-12-14T00:13:05;41.67;;;10.40;;
16173;SDS011;14031;50.158;8.626;2023-12-14T00:15:32;37.43;;;9.53;;
16173;SDS011;14031;50.158;8.626;2023-12-14T00:17:59;39.30;;;10.80;;
16173;SDS011;14031;50.158;8.626;2023-12-14T00:20:26;75.40;;;14.80;;
16173;SDS011;14031;50.158;8.626;2023-12-14T00:22:55;82.37;;;12.00;;
16173;SDS011;14031;50.158;8.626;2023-12-14T00:25:21;53.67;;;10.13;;
16173;SDS011;14031;50.158;8.626;2023-12-14T00:27:48;45.57;;;10.40;;
16173;SDS011;14031;50.158;8.626;2023-12-14T00:30:15;21.33;;;10.00;;
16173;SDS011;14031;50.158;8.626;2023-12-14T00:32:42;57.57;;;10.13;;
16173;SDS011;14031;50.158;8.626;2023-12-14T00:35:09;22.37;;;10.13;;
16173;SDS011;14031;50.158;8.626;2023-12-14T00:37:36;28.33;;;10.47;;
16173;SDS011;14031;50.158;8.626;2023-12-14T00:40:05;40.40;;;10.87;;
16173;SDS011;14031;50.158;8.626;2023-12-14T00:42:33;45.13;;;10.47;;
16173;SDS011;14031;50.158;8.626;2023-12-14T00:45:00;30.63;;;10.77;;
16173;SDS011;14031;50.158;8.626;2023-12-14T00:47:27;44.60;;;10.77;;
16173;SDS011;14031;50.158;8.626;2023-12-14T00:49:53;41.13;;;11.37;;
16173;SDS011;14031;50.158;8.626;2023-12-14T00:52:20;19.50;;;10.30;;
16173;SDS011;14031;50.158;8.626;2023-12-14T00:54:47;17.20;;;10.43;;
16173;SDS011;14031;50.158;8.626;2023-12-14T00:57:15;34.47;;;11.23;;
16173;SDS011;14031;50.158;8.626;2023-12-14T00:59:42;27.10;;;11.20;;
16173;SDS011;14031;50.158;8.626;2023-12-14T01:02:08;19.97;;;9.90;;
16173;SDS011;14031;50.158;8.626;2023-12-14T01:04:35;31.47;;;10.93;;
16173;SDS011;14031;50.158;8.626;2023-12-14T01:07:02;25.87;;;10.03;;
16173;SDS011;14031;50.158;8.626;2023-12-14T01:09:29;19.37;;;11.63;;
16173;SDS011;14031;50.158;8.626;2023-12-14T01:11:56;33.70;;;11.50;;
16173;SDS011;14031;50.158;8.626;2023-12-14T01:14:24;42.27;;;12.50;;
16173;SDS011;14031;50.158;8.626;2023-12-14T01:16:51;23.07;;;10.03;;
16173;SDS011;14031;50.158;8.626;2023-12-14T01:19:17;15.10;;;11.03;;
16173;SDS011;14031;50.158;8.626;2023-12-14T01:21:44;23.83;;;10.77;;
16173;SDS011;14031;50.158;8.626;2023-12-14T01:24:11;20.90;;;10.40;;
16173;SDS011;14031;50.158;8.626;2023-12-14T01:26:38;14.83;;;10.90;;
16173;SDS011;14031;50.158;8.626;2023-12-14T01:29:04;18.00;;;11.30;;
16173;SDS011;14031;50.158;8.626;2023-12-14T01:31:32;14.13;;;10.50;;
16173;SDS011;14031;50.158;8.626;2023-12-14T01:33:59;13.40;;;11.17;;
16173;SDS011;14031;50.158;8.626;2023-12-14T01:36:26;13.23;;;10.90;;
16173;SDS011;14031;50.158;8.626;2023-12-14T01:38:53;13.17;;;11.10;;
16173;SDS011;14031;50.158;8.626;2023-12-14T01:41:19;13.50;;;10.87;;
16173;SDS011;14031;50.158;8.626;2023-12-14T01:43:46;13.67;;;11.00;;
16173;SDS011;14031;50.158;8.626;2023-12-14T01:46:13;19.90;;;11.63;;
16173;SDS011;14031;50.158;8.626;2023-12-14T01:48:42;14.00;;;11.23;;
16173;SDS011;14031;50.158;8.626;2023-12-14T01:51:09;14.03;;;11.33;;
16173;SDS011;14031;50.158;8.626;2023-12-14T01:53:36;14.93;;;10.67;;
16173;SDS011;14031;50.158;8.626;2023-12-14T01:56:03;15.47;;;11.80;;
16173;SDS011;14031;50.158;8.626;2023-12-14T01:58:30;14.57;;;10.90;;
16173;SDS011;14031;50.158;8.626;2023-12-14T02:00:58;12.30;;;10.70;;
16173;SDS011;14031;50.158;8.626;2023-12-14T02:03:29;11.97;;;10.57;;
16173;SDS011;14031;50.158;8.626;2023-12-14T02:05:58;13.23;;;10.47;;
16173;SDS011;14031;50.158;8.626;2023-12-14T02:08:25;18.33;;;11.27;;
16173;SDS011;14031;50.158;8.626;2023-12-14T02:10:54;15.20;;;11.00;;
16173;SDS011;14031;50.158;8.626;2023-12-14T02:13:20;11.50;;;10.33;;
16173;SDS011;14031;50.158;8.626;2023-12-14T02:15:48;14.37;;;11.17;;
16173;SDS011;14031;50.158;8.626;2023-12-14T02:18:14;14.73;;;10.60;;
16173;SDS011;14031;50.158;8.626;2023-12-14T02:20:41;13.03;;;11.13;;
16173;SDS011;14031;50.158;8.626;2023-12-14T02:23:09;17.33;;;10.23;;
16173;SDS011;14031;50.158;8.626;2023-12-14T02:25:36;21.67;;;11.10;;
16173;SDS011;14031;50.158;8.626;2023-12-14T02:28:03;15.73;;;11.20;;
16173;SDS011;14031;50.158;8.626;2023-12-14T02:30:29;11.90;;;10.03;;
16173;SDS011;14031;50.158;8.626;2023-12-14T02:32:56;17.67;;;11.57;;
16173;SDS011;14031;50.158;8.626;2023-12-14T02:35:23;14.57;;;10.90;;
16173;SDS011;14031;50.158;8.626;2023-12-14T02:37:49;19.33;;;11.27;;
16173;SDS011;14031;50.158;8.626;2023-12-14T02:40:18;18.30;;;11.07;;
16173;SDS011;14031;50.158;8.626;2023-12-14T02:42:44;15.50;;;10.77;;
16173;SDS011;14031;50.158;8.626;2023-12-14T02:45:11;14.53;;;10.53;;
16173;SDS011;14031;50.158;8.626;2023-12-14T02:47:38;17.50;;;11.13;;
16173;SDS011;14031;50.158;8.626;2023-12-14T02:50:05;16.10;;;11.10;;
16173;SDS011;14031;50.158;8.626;2023-12-14T02:52:32;15.27;;;10.90;;
16173;SDS011;14031;50.158;8.626;2023-12-14T02:54:59;13.63;;;10.63;;
16173;SDS011;14031;50.158;8.626;2023-12-14T02:57:27;22.33;;;12.07;;
16173;SDS011;14031;50.158;8.626;2023-12-14T02:59:54;19.30;;;11.90;;
16173;SDS011;14031;50.158;8.626;2023-12-14T03:02:21;15.97;;;10.77;;
16173;SDS011;14031;50.158;8.626;2023-12-14T03:04:48;21.80;;;11.97;;
16173;SDS011;14031;50.158;8.626;2023-12-14T03:07:15;24.90;;;12.87;;
16173;SDS011;14031;50.158;8.626;2023-12-14T03:09:42;23.57;;;11.87;;
16173;SDS011;14031;50.158;8.626;2023-12-14T03:12:09;17.77;;;11.37;;
16173;SDS011;14031;50.158;8.626;2023-12-14T03:14:37;33.13;;;12.10;;
16173;SDS011;14031;50.158;8.626;2023-12-14T03:17:05;27.50;;;12.87;;
16173;SDS011;14031;50.158;8.626;2023-12-14T03:19:37;18.83;;;12.67;;
16173;SDS011;14031;50.158;8.626;2023-12-14T03:22:04;31.30;;;13.73;;
16173;SDS011;14031;50.158;8.626;2023-12-14T03:24:31;23.93;;;11.83;;
16173;SDS011;14031;50.158;8.626;2023-12-14T03:26:57;32.97;;;13.17;;
16173;SDS011;14031;50.158;8.626;2023-12-14T03:29:25;30.33;;;11.47;;
16173;SDS011;14031;50.158;8.626;2023-12-14T03:31:54;32.23;;;12.43;;
16173;SDS011;14031;50.158;8.626;2023-12-14T03:34:21;27.87;;;12.10;;
16173;SDS011;14031;50.158;8.626;2023-12-14T03:36:47;33.27;;;11.60;;
16173;SDS011;14031;50.158;8.626;2023-12-14T03:39:14;20.63;;;12.43;;
16173;SDS011;14031;50.158;8.626;2023-12-14T03:41:42;26.27;;;12.13;;
16173;SDS011;14031;50.158;8.626;2023-12-14T03:44:09;20.77;;;10.67;;
16173;SDS011;14031;50.158;8.626;2023-12-14T03:46:35;19.77;;;11.20;;
16173;SDS011;14031;50.158;8.626;2023-12-14T03:49:04;17.23;;;12.03;;
16173;SDS011;14031;50.158;8.626;2023-12-14T03:51:30;28.73;;;11.63;;
16173;SDS011;14031;50.158;8.626;2023-12-14T03:53:57;18.77;;;10.97;;
16173;SDS011;14031;50.158;8.626;2023-12-14T03:56:24;16.67;;;11.30;;
16173;SDS011;14031;50.158;8.626;2023-12-14T03:58:51;19.43;;;11.60;;
16173;SDS011;14031;50.158;8.626;2023-12-14T04:01:18;18.97;;;11.30;;
16173;SDS011;14031;50.158;8.626;2023-12-14T04:03:46;49.23;;;11.13;;
16173;SDS011;14031;50.158;8.626;2023-12-14T04:06:15;35.73;;;11.53;;
16173;SDS011;14031;50.158;8.626;2023-12-14T04:08:42;40.57;;;12.57;;
16173;SDS011;14031;50.158;8.626;2023-12-14T04:11:09;40.10;;;11.63;;
16173;SDS011;14031;50.158;8.626;2023-12-14T04:13:35;26.13;;;11.77;;
16173;SDS011;14031;50.158;8.626;2023-12-14T04:16:04;27.17;;;11.60;;
16173;SDS011;14031;50.158;8.626;2023-12-14T04:18:31;61.47;;;12.13;;
16173;SDS011;14031;50.158;8.626;2023-12-14T04:20:58;34.43;;;12.43;;
16173;SDS011;14031;50.158;8.626;2023-12-14T04:23:26;20.00;;;11.40;;
16173;SDS011;14031;50.158;8.626;2023-12-14T04:25:53;18.87;;;11.00;;
16173;SDS011;14031;50.158;8.626;2023-12-14T04:28:20;14.50;;;10.93;;
16173;SDS011;14031;50.158;8.626;2023-12-14T04:30:47;18.10;;;11.03;;
16173;SDS011;14031;50.158;8.626;2023-12-14T04:33:13;19.77;;;11.20;;
16173;SDS011;14031;50.158;8.626;2023-12-14T04:35:40;29.80;;;10.67;;
16173;SDS011;14031;50.158;8.626;2023-12-14T04:38:07;19.50;;;11.10;;
16173;SDS011;14031;50.158;8.626;2023-12-14T04:40:35;35.23;;;10.77;;
16173;SDS011;14031;50.158;8.626;2023-12-14T04:43:02;23.43;;;10.87;;
16173;SDS011;14031;50.158;8.626;2023-12-14T04:45:28;23.87;;;10.50;;
16173;SDS011;14031;50.158;8.626;2023-12-14T04:47:55;23.00;;;11.17;;
16173;SDS011;14031;50.158;8.626;2023-12-14T04:50:22;22.47;;;10.13;;
16173;SDS011;14031;50.158;8.626;2023-12-14T04:52:49;31.23;;;10.80;;
16173;SDS011;14031;50.158;8.626;2023-12-14T04:55:15;50.47;;;12.43;;
16173;SDS011;14031;50.158;8.626;2023-12-14T04:57:43;30.93;;;11.30;;
16173;SDS011;14031;50.158;8.626;2023-12-14T05:00:11;35.83;;;11.50;;
16173;SDS011;14031;50.158;8.626;2023-12-14T05:02:39;43.90;;;12.20;;
16173;SDS011;14031;50.158;8.626;2023-12-14T05:05:06;32.23;;;11.27;;
16173;SDS011;14031;50.158;8.626;2023-12-14T05:07:33;17.43;;;10.90;;
16173;SDS011;14031;50.158;8.626;2023-12-14T05:10:00;26.60;;;10.67;;
16173;SDS011;14031;50.158;8.626;2023-12-14T05:12:26;40.03;;;11.87;;
16173;SDS011;14031;50.158;8.626;2023-12-14T05:14:55;26.80;;;11.70;;
16173;SDS011;14031;50.158;8.626;2023-12-14T05:17:22;26.43;;;11.20;;
16173;SDS011;14031;50.158;8.626;2023-12-14T05:19:49;47.57;;;13.10;;
16173;SDS011;14031;50.158;8.626;2023-12-14T05:22:16;20.23;;;11.47;;
16173;SDS011;14031;50.158;8.626;2023-12-14T05:24:44;17.47;;;10.00;;
16173;SDS011;14031;50.158;8.626;2023-12-14T05:27:12;15.87;;;9.87;;
16173;SDS011;14031;50.158;8.626;2023-12-14T05:29:39;25.97;;;10.60;;
16173;SDS011;14031;50.158;8.626;2023-12-14T05:32:07;19.20;;;11.53;;
16173;SDS011;14031;50.158;8.626;2023-12-14T05:34:34;12.20;;;10.00;;
16173;SDS011;14031;50.158;8.626;2023-12-14T05:37:00;18.47;;;10.60;;
16173;SDS011;14031;50.158;8.626;2023-12-14T05:39:27;22.20;;;11.10;;
16173;SDS011;14031;50.158;8.626;2023-12-14T05:41:54;22.40;;;10.90;;
16173;SDS011;14031;50.158;8.626;2023-12-14T05:44:21;13.00;;;10.50;;
16173;SDS011;14031;50.158;8.626;2023-12-14T05:46:49;11.87;;;10.17;;
16173;SDS011;14031;50.158;8.626;2023-12-14T05:49:17;12.90;;;10.13;;
16173;SDS011;14031;50.158;8.626;2023-12-14T05:51:43;15.23;;;10.53;;
16173;SDS011;14031;50.158;8.626;2023-12-14T05:54:10;12.63;;;10.20;;
16173;SDS011;14031;50.158;8.626;2023-12-14T05:56:37;12.37;;;10.67;;
16173;SDS011;14031;50.158;8.626;2023-12-14T05:59:04;15.57;;;10.60;;
16173;SDS011;14031;50.158;8.626;2023-12-14T06:01:30;12.83;;;11.27;;
16173;SDS011;14031;50.158;8.626;2023-12-14T06:03:57;16.07;;;11.10;;
16173;SDS011;14031;50.158;8.626;2023-12-14T06:06:25;14.37;;;10.47;;
16173;SDS011;14031;50.158;8.626;2023-12-14T06:08:52;15.20;;;11.43;;
16173;SDS011;14031;50.158;8.626;2023-12-14T06:11:19;17.67;;;11.17;;
16173;SDS011;14031;50.158;8.626;2023-12-14T06:13:45;18.03;;;10.40;;
16173;SDS011;14031;50.158;8.626;2023-12-14T06:16:12;14.77;;;10.47;;
16173;SDS011;14031;50.158;8.626;2023-12-14T06:18:39;20.30;;;11.00;;
16173;SDS011;14031;50.158;8.626;2023-12-14T06:21:08;25.10;;;11.27;;
16173;SDS011;14031;50.158;8.626;2023-12-14T06:23:38;68.73;;;13.10;;
16173;SDS011;14031;50.158;8.626;2023-12-14T06:26:05;32.57;;;11.73;;
16173;SDS011;14031;50.158;8.626;2023-12-14T06:28:32;40.87;;;11.63;;
16173;SDS011;14031;50.158;8.626;2023-12-14T06:30:59;35.03;;;11.10;;
16173;SDS011;14031;50.158;8.626;2023-12-14T06:33:26;17.77;;;11.07;;
16173;SDS011;14031;50.158;8.626;2023-12-14T06:35:53;17.43;;;11.40;;
16173;SDS011;14031;50.158;8.626;2023-12-14T06:38:19;15.80;;;10.40;;
16173;SDS011;14031;50.158;8.626;2023-12-14T06:40:47;26.20;;;10.93;;
16173;SDS011;14031;50.158;8.626;2023-12-14T06:43:14;15.20;;;11.13;;
16173;SDS011;14031;50.158;8.626;2023-12-14T06:45:41;15.53;;;11.00;;
16173;SDS011;14031;50.158;8.626;2023-12-14T06:48:08;11.97;;;10.67;;
16173;SDS011;14031;50.158;8.626;2023-12-14T06:50:34;14.93;;;10.87;;
16173;SDS011;14031;50.158;8.626;2023-12-14T06:53:01;11.20;;;9.90;;
16173;SDS011;14031;50.158;8.626;2023-12-14T06:55:28;11.10;;;10.00;;
16173;SDS011;14031;50.158;8.626;2023-12-14T06:57:56;14.00;;;10.37;;
16173;SDS011;14031;50.158;8.626;2023-12-14T07:00:23;11.23;;;10.00;;
16173;SDS011;14031;50.158;8.626;2023-12-14T07:02:50;14.87;;;10.97;;
16173;SDS011;14031;50.158;8.626;2023-12-14T07:05:16;14.47;;;11.33;;
16173;SDS011;14031;50.158;8.626;2023-12-14T07:07:43;11.60;;;10.27;;
16173;SDS011;14031;50.158;8.626;2023-12-14T07:10:10;12.13;;;10.93;;
16173;SDS011;14031;50.158;8.626;2023-12-14T07:12:37;11.67;;;10.00;;
16173;SDS011;14031;50.158;8.626;2023-12-14T07:15:05;13.93;;;10.60;;
16173;SDS011;14031;50.158;8.626;2023-12-14T07:17:33;13.63;;;10.53;;
16173;SDS011;14031;50.158;8.626;2023-12-14T07:20:00;12.83;;;11.20;;
16173;SDS011;14031;50.158;8.626;2023-12-14T07:22:26;12.47;;;10.37;;
16173;SDS011;14031;50.158;8.626;2023-12-14T07:24:53;12.70;;;10.93;;
16173;SDS011;14031;50.158;8.626;2023-12-14T07:27:20;14.53;;;11.50;;
16173;SDS011;14031;50.158;8.626;2023-12-14T07:29:47;11.63;;;10.17;;
16173;SDS011;14031;50.158;8.626;2023-12-14T07:32:15;11.50;;;10.33;;
16173;SDS011;14031;50.158;8.626;2023-12-14T07:34:42;12.43;;;11.17;;
16173;SDS011;14031;50.158;8.626;2023-12-14T07:37:09;14.77;;;11.90;;
16173;SDS011;14031;50.158;8.626;2023-12-14T07:39:36;11.37;;;10.27;;
16173;SDS011;14031;50.158;8.626;2023-12-14T07:42:03;14.63;;;11.40;;
16173;SDS011;14031;50.158;8.626;2023-12-14T07:44:30;12.37;;;9.70;;
16173;SDS011;14031;50.158;8.626;2023-12-14T07:46:59;10.83;;;9.77;;
16173;SDS011;14031;50.158;8.626;2023-12-14T07:49:28;11.53;;;10.10;;
16173;SDS011;14031;50.158;8.626;2023-12-14T07:51:55;12.50;;;10.33;;
16173;SDS011;14031;50.158;8.626;2023-12-14T07:54:22;11.03;;;9.50;;
16173;SDS011;14031;50.158;8.626;2023-12-14T07:56:51;12.20;;;10.20;;
16173;SDS011;14031;50.158;8.626;2023-12-14T07:59:17;13.93;;;11.13;;
16173;SDS011;14031;50.158;8.626;2023-12-14T08:01:44;13.10;;;10.27;;
16173;SDS011;14031;50.158;8.626;2023-12-14T08:04:11;12.00;;;10.40;;
16173;SDS011;14031;50.158;8.626;2023-12-14T08:06:39;11.33;;;10.10;;
16173;SDS011;14031;50.158;8.626;2023-12-14T08:09:06;19.43;;;12.00;;
16173;SDS011;14031;50.158;8.626;2023-12-14T08:11:33;14.03;;;11.40;;
16173;SDS011;14031;50.158;8.626;2023-12-14T08:14:00;15.73;;;12.20;;
16173;SDS011;14031;50.158;8.626;2023-12-14T08:16:28;14.67;;;12.10;;
16173;SDS011;14031;50.158;8.626;2023-12-14T08:18:54;15.20;;;11.80;;
16173;SDS011;14031;50.158;8.626;2023-12-14T08:21:21;16.30;;;12.30;;
16173;SDS011;14031;50.158;8.626;2023-12-14T08:23:50;15.43;;;11.50;;
16173;SDS011;14031;50.158;8.626;2023-12-14T08:26:17;15.03;;;11.77;;
16173;SDS011;14031;50.158;8.626;2023-12-14T08:28:43;12.27;;;10.80;;
16173;SDS011;14031;50.158;8.626;2023-12-14T08:31:10;12.40;;;10.37;;
16173;SDS011;14031;50.158;8.626;2023-12-14T08:33:37;12.47;;;9.97;;
16173;SDS011;14031;50.158;8.626;2023-12-14T08:36:04;11.83;;;10.47;;
16173;SDS011;14031;50.158;8.626;2023-12-14T08:38:31;17.20;;;10.17;;
16173;SDS011;14031;50.158;8.626;2023-12-14T08:40:59;11.30;;;10.03;;
16173;SDS011;14031;50.158;8.626;2023-12-14T08:43:26;16.83;;;10.33;;
16173;SDS011;14031;50.158;8.626;2023-12-14T08:45:53;14.13;;;10.87;;
16173;SDS011;14031;50.158;8.626;2023-12-14T08:48:19;14.23;;;9.83;;
16173;SDS011;14031;50.158;8.626;2023-12-14T08:50:46;11.60;;;10.33;;
16173;SDS011;14031;50.158;8.626;2023-12-14T08:53:13;19.80;;;10.73;;
16173;SDS011;14031;50.158;8.626;2023-12-14T08:55:40;11.43;;;10.33;;
16173;SDS011;14031;50.158;8.626;2023-12-14T08:58:08;11.30;;;9.97;;
16173;SDS011;14031;50.158;8.626;2023-12-14T09:00:34;12.23;;;10.53;;
16173;SDS011;14031;50.158;8.626;2023-12-14T09:03:01;12.33;;;11.03;;
16173;SDS011;14031;50.158;8.626;2023-12-14T09:05:28;13.17;;;9.80;;
16173;SDS011;14031;50.158;8.626;2023-12-14T09:07:55;13.90;;;10.97;;
16173;SDS011;14031;50.158;8.626;2023-12-14T09:10:24;14.17;;;10.67;;
16173;SDS011;14031;50.158;8.626;2023-12-14T09:12:51;12.53;;;10.03;;
16173;SDS011;14031;50.158;8.626;2023-12-14T09:15:19;11.43;;;9.23;;
16173;SDS011;14031;50.158;8.626;2023-12-14T09:17:46;11.17;;;10.03;;
16173;SDS011;14031;50.158;8.626;2023-12-14T09:20:13;12.60;;;9.80;;
16173;SDS011;14031;50.158;8.626;2023-12-14T09:22:39;10.63;;;9.60;;
16173;SDS011;14031;50.158;8.626;2023-12-14T09:25:07;10.47;;;9.40;;
16173;SDS011;14031;50.158;8.626;2023-12-14T09:27:35;14.70;;;10.33;;
16173;SDS011;14031;50.158;8.626;2023-12-14T09:30:01;11.03;;;9.23;;
16173;SDS011;14031;50.158;8.626;2023-12-14T09:32:30;13.73;;;9.63;;
16173;SDS011;14031;50.158;8.626;2023-12-14T09:34:57;10.97;;;9.83;;
16173;SDS011;14031;50.158;8.626;2023-12-14T09:37:24;11.97;;;9.77;;
16173;SDS011;14031;50.158;8.626;2023-12-14T09:39:51;15.77;;;9.23;;
16173;SDS011;14031;50.158;8.626;2023-12-14T09:42:18;16.33;;;10.13;;
16173;SDS011;14031;50.158;8.626;2023-12-14T09:44:46;12.03;;;10.67;;
16173;SDS011;14031;50.158;8.626;2023-12-14T09:47:14;12.53;;;9.90;;
16173;SDS011;14031;50.158;8.626;2023-12-14T09:49:42;15.10;;;10.73;;
16173;SDS011;14031;50.158;8.626;2023-12-14T09:52:09;11.93;;;9.80;;
16173;SDS011;14031;50.158;8.626;2023-12-14T09:54:36;18.50;;;10.03;;
16173;SDS011;14031;50.158;8.626;2023-12-14T09:57:03;12.97;;;9.80;;
16173;SDS011;14031;50.158;8.626;2023-12-14T09:59:30;13.00;;;9.80;;
16173;SDS011;14031;50.158;8.626;2023-12-14T10:02:08;12.90;;;10.27;;
16173;SDS011;14031;50.158;8.626;2023-12-14T10:04:36;14.77;;;9.77;;
16173;SDS011;14031;50.158;8.626;2023-12-14T10:07:04;13.47;;;10.47;;
16173;SDS011;14031;50.158;8.626;2023-12-14T10:09:32;12.30;;;9.90;;
16173;SDS011;14031;50.158;8.626;2023-12-14T10:12:02;13.27;;;10.30;;
16173;SDS011;14031;50.158;8.626;2023-12-14T10:14:30;11.07;;;9.47;;
16173;SDS011;14031;50.158;8.626;2023-12-14T10:16:58;13.50;;;9.30;;
16173;SDS011;14031;50.158;8.626;2023-12-14T10:19:26;6.23;;;5.80;;
16173;SDS011;14031;50.158;8.626;2023-12-14T10:21:52;6.17;;;4.20;;
16173;SDS011;14031;50.158;8.626;2023-12-14T10:24:20;3.83;;;3.53;;
16173;SDS011;14031;50.158;8.626;2023-12-14T10:26:48;3.40;;;3.20;;
16173;SDS011;14031;50.158;8.626;2023-12-14T10:29:17;3.27;;;3.07;;
16173;SDS011;14031;50.158;8.626;2023-12-14T10:31:43;3.33;;;3.13;;
16173;SDS011;14031;50.158;8.626;2023-12-14T10:34:10;3.53;;;3.33;;
16173;SDS011;14031;50.158;8.626;2023-12-14T10:36:37;3.70;;;3.40;;
16173;SDS011;14031;50.158;8.626;2023-12-14T10:39:04;3.50;;;3.30;;
16173;SDS011;14031;50.158;8.626;2023-12-14T10:41:34;3.30;;;3.10;;
16173;SDS011;14031;50.158;8.626;2023-12-14T10:44:03;2.87;;;2.77;;
16173;SDS011;14031;50.158;8.626;2023-12-14T10:46:31;2.70;;;2.50;;
16173;SDS011;14031;50.158;8.626;2023-12-14T10:48:59;3.53;;;2.97;;
16173;SDS011;14031;50.158;8.626;2023-12-14T10:51:27;2.83;;;2.57;;
16173;SDS011;14031;50.158;8.626;2023-12-14T10:53:55;6.23;;;2.70;;
16173;SDS011;14031;50.158;8.626;2023-12-14T10:56:22;3.23;;;3.03;;
16173;SDS011;14031;50.158;8.626;2023-12-14T10:58:52;2.30;;;2.20;;
16173;SDS011;14031;50.158;8.626;2023-12-14T11:01:20;2.80;;;2.60;;
16173;SDS011;14031;50.158;8.626;2023-12-14T11:03:49;2.60;;;2.50;;
16173;SDS011;14031;50.158;8.626;2023-12-14T11:06:20;2.70;;;2.50;;
16173;SDS011;14031;50.158;8.626;2023-12-14T11:08:54;2.57;;;2.47;;
16173;SDS011;14031;50.158;8.626;2023-12-14T11:11:27;2.53;;;2.33;;
16173;SDS011;14031;50.158;8.626;2023-12-14T11:13:56;2.10;;;2.00;;
16173;SDS011;14031;50.158;8.626;2023-12-14T11:16:23;1.70;;;1.70;;
16173;SDS011;14031;50.158;8.626;2023-12-14T11:21:56;1.80;;;1.70;;
16173;SDS011;14031;50.158;8.626;2023-12-14T11:24:37;1.60;;;1.50;;
16173;SDS011;14031;50.158;8.626;2023-12-14T11:27:08;1.73;;;1.63;;
16173;SDS011;14031;50.158;8.626;2023-12-14T11:29:37;1.63;;;1.53;;
16173;SDS011;14031;50.158;8.626;2023-12-14T11:32:05;1.70;;;1.60;;
16173;SDS011;14031;50.158;8.626;2023-12-14T11:34:32;1.50;;;1.40;;
16173;SDS011;14031;50.158;8.626;2023-12-14T11:36:59;1.40;;;1.40;;
16173;SDS011;14031;50.158;8.626;2023-12-14T11:39:29;1.70;;;1.60;;
16173;SDS011;14031;50.158;8.626;2023-12-14T11:41:59;1.40;;;1.40;;
16173;SDS011;14031;50.158;8.626;2023-12-14T11:44:27;1.30;;;1.30;;
16173;SDS011;14031;50.158;8.626;2023-12-14T11:46:55;1.10;;;1.10;;
16173;SDS011;14031;50.158;8.626;2023-12-14T11:49:23;1.27;;;1.27;;
16173;SDS011;14031;50.158;8.626;2023-12-14T11:51:51;1.30;;;1.30;;
16173;SDS011;14031;50.158;8.626;2023-12-14T11:54:18;1.37;;;1.37;;
16173;SDS011;14031;50.158;8.626;2023-12-14T11:56:46;1.80;;;1.70;;
16173;SDS011;14031;50.158;8.626;2023-12-14T11:59:14;1.73;;;1.63;;
16173;SDS011;14031;50.158;8.626;2023-12-14T12:01:53;1.87;;;1.40;;
16173;SDS011;14031;50.158;8.626;2023-12-14T12:04:21;1.73;;;1.63;;
16173;SDS011;14031;50.158;8.626;2023-12-14T12:06:48;2.10;;;2.00;;
16173;SDS011;14031;50.158;8.626;2023-12-14T12:12:01;2.03;;;1.93;;
16173;SDS011;14031;50.158;8.626;2023-12-14T12:14:28;2.10;;;2.00;;
16173;SDS011;14031;50.158;8.626;2023-12-14T12:16:55;2.33;;;2.23;;
16173;SDS011;14031;50.158;8.626;2023-12-14T12:19:23;2.33;;;2.23;;
16173;SDS011;14031;50.158;8.626;2023-12-14T12:21:50;2.80;;;2.60;;
16173;SDS011;14031;50.158;8.626;2023-12-14T12:24:17;2.63;;;2.47;;
16173;SDS011;14031;50.158;8.626;2023-12-14T12:26:44;2.90;;;2.70;;
16173;SDS011;14031;50.158;8.626;2023-12-14T12:29:11;2.57;;;2.47;;
16173;SDS011;14031;50.158;8.626;2023-12-14T12:31:37;2.60;;;2.50;;
16173;SDS011;14031;50.158;8.626;2023-12-14T12:34:05;2.33;;;2.23;;
16173;SDS011;14031;50.158;8.626;2023-12-14T12:36:33;2.20;;;2.10;;
16173;SDS011;14031;50.158;8.626;2023-12-14T12:39:01;2.07;;;1.97;;
16173;SDS011;14031;50.158;8.626;2023-12-14T12:41:30;1.60;;;1.60;;
16173;SDS011;14031;50.158;8.626;2023-12-14T12:43:57;2.17;;;1.83;;
16173;SDS011;14031;50.158;8.626;2023-12-14T12:46:30;1.83;;;1.73;;
16173;SDS011;14031;50.158;8.626;2023-12-14T12:48:57;2.00;;;1.90;;
16173;SDS011;14031;50.158;8.626;2023-12-14T12:51:24;2.07;;;1.97;;
16173;SDS011;14031;50.158;8.626;2023-12-14T12:53:53;3.90;;;2.00;;
16173;SDS011;14031;50.158;8.626;2023-12-14T12:56:20;2.07;;;1.97;;
16173;SDS011;14031;50.158;8.626;2023-12-14T12:58:47;1.90;;;1.80;;
16173;SDS011;14031;50.158;8.626;2023-12-14T13:01:15;2.43;;;2.13;;
16173;SDS011;14031;50.158;8.626;2023-12-14T13:03:41;1.97;;;1.87;;
16173;SDS011;14031;50.158;8.626;2023-12-14T13:06:08;1.93;;;1.83;;
16173;SDS011;14031;50.158;8.626;2023-12-14T13:08:35;2.20;;;2.10;;
16173;SDS011;14031;50.158;8.626;2023-12-14T13:11:03;1.90;;;1.80;;
16173;SDS011;14031;50.158;8.626;2023-12-14T13:13:30;1.70;;;1.60;;
16173;SDS011;14031;50.158;8.626;2023-12-14T13:15:57;1.80;;;1.70;;
16173;SDS011;14031;50.158;8.626;2023-12-14T13:18:24;1.83;;;1.73;;
16173;SDS011;14031;50.158;8.626;2023-12-14T13:20:50;1.67;;;1.60;;
16173;SDS011;14031;50.158;8.626;2023-12-14T13:23:17;1.53;;;1.50;;
16173;SDS011;14031;50.158;8.626;2023-12-14T13:25:44;1.60;;;1.57;;
16173;SDS011;14031;50.158;8.626;2023-12-14T13:28:12;1.43;;;1.43;;
16173;SDS011;14031;50.158;8.626;2023-12-14T13:30:39;1.90;;;1.80;;
16173;SDS011;14031;50.158;8.626;2023-12-14T13:33:06;2.07;;;1.97;;
16173;SDS011;14031;50.158;8.626;2023-12-14T13:35:34;3.03;;;1.90;;
16173;SDS011;14031;50.158;8.626;2023-12-14T13:38:01;1.93;;;1.83;;
16173;SDS011;14031;50.158;8.626;2023-12-14T13:40:28;2.63;;;2.53;;
16173;SDS011;14031;50.158;8.626;2023-12-14T13:42:55;1.80;;;1.70;;
16173;SDS011;14031;50.158;8.626;2023-12-14T13:45:25;1.97;;;1.87;;
16173;SDS011;14031;50.158;8.626;2023-12-14T13:47:54;2.40;;;2.30;;
16173;SDS011;14031;50.158;8.626;2023-12-14T13:50:23;1.77;;;1.67;;
16173;SDS011;14031;50.158;8.626;2023-12-14T13:52:51;1.80;;;1.70;;
16173;SDS011;14031;50.158;8.626;2023-12-14T13:55:18;1.90;;;1.80;;
16173;SDS011;14031;50.158;8.626;2023-12-14T13:57:45;2.10;;;2.00;;
16173;SDS011;14031;50.158;8.626;2023-12-14T14:00:13;2.93;;;1.70;;
16173;SDS011;14031;50.158;8.626;2023-12-14T14:02:42;1.90;;;1.80;;
16173;SDS011;14031;50.158;8.626;2023-12-14T14:05:09;2.87;;;2.13;;
16173;SDS011;14031;50.158;8.626;2023-12-14T14:07:36;2.50;;;2.40;;
16173;SDS011;14031;50.158;8.626;2023-12-14T14:10:03;2.23;;;2.13;;
16173;SDS011;14031;50.158;8.626;2023-12-14T14:12:30;2.10;;;2.00;;
16173;SDS011;14031;50.158;8.626;2023-12-14T14:14:57;2.43;;;2.33;;
16173;SDS011;14031;50.158;8.626;2023-12-14T14:17:24;2.47;;;2.20;;
16173;SDS011;14031;50.158;8.626;2023-12-14T14:19:52;2.50;;;2.40;;
16173;SDS011;14031;50.158;8.626;2023-12-14T14:22:19;2.87;;;2.73;;
16173;SDS011;14031;50.158;8.626;2023-12-14T14:24:46;3.17;;;2.97;;
16173;SDS011;14031;50.158;8.626;2023-12-14T14:27:12;3.43;;;3.17;;
16173;SDS011;14031;50.158;8.626;2023-12-14T14:29:40;3.57;;;3.10;;
16173;SDS011;14031;50.158;8.626;2023-12-14T14:32:07;5.37;;;3.27;;
16173;SDS011;14031;50.158;8.626;2023-12-14T14:34:33;3.20;;;3.00;;
16173;SDS011;14031;50.158;8.626;2023-12-14T14:37:02;3.50;;;3.30;;